All
Camden Airport (Camden, New South Wales) CDU Weather
|
Camden, New South Wales (CDU / YSCN)
Clear skies
Windy |
|
66 °F |
CDU Terminal Area Forecast
| Here is the undecoded forecast: 2026/05/08 02:19 YSCN 080219Z 0802/0812 25016G26KT CAVOK FM080700 25012KT CAVOK FM081000 21005KT CAVOK RMK FM080200 MOD TURB BLW 5000FT TL081000 T 19 18 15 12 Q 1017 1016 1018 1021 |
Recent CDU METAR history
| Date | Time (AEST) | Flight Rules | Wind Dir. | Speed | Type | Height AGL (ft) | Visibility | Temp (°C) | Temp (°F) | Dew Point (°C) | Dew Point (°F) | Rel. Humid. | Pressure | Density Altitude | Remarks |
|---|---|---|---|---|---|---|---|---|---|---|---|---|---|---|---|
| 08-May | 01:00PM | VFR | 240° | 14 kt | 10000 meters | 19° | 66° | 5° | 41° | 40% | 1016 mb | 628 ft | |||
| 08-May | 12:00PM | VFR | 250° | 12 kt | 10000 meters | 19° | 66° | 5° | 41° | 40% | 1017 mb | 598 ft | |||
| 08-May | 11:00AM | VFR | 240° | 11 kt | 10000 meters | 17° | 62° | 4° | 39° | 42% | 1018 mb | 328 ft | |||
| 08-May | 10:00AM | VFR | 260° | 11 kt | 10000 meters | 17° | 62° | 5° | 41° | 45% | 1018 mb | 328 ft | |||
| 08-May | 09:00AM | VFR | 240° | 11 kt | 10000 meters | 15° | 59° | 4° | 39° | 48% | 1018 mb | 88 ft | |||
| 08-May | 08:00AM | VFR | 270° | 7 kt | 10000 meters | 13° | 55° | 4° | 39° | 54% | 1018 mb | -152 ft | |||
| 08-May | 07:00AM | VFR | 260° | 8 kt | 10000 meters | 10° | 50° | 3° | 37° | 62% | 1018 mb | -512 ft | |||
| 08-May | 06:00AM | VFR | 250° | 8 kt | 10000 meters | 10° | 50° | 2° | 35° | 57% | 1018 mb | -512 ft | |||
| 08-May | 05:00AM | VFR | 270° | 7 kt | 10000 meters | 10° | 50° | 2° | 35° | 57% | 1017 mb | -482 ft | |||
| 08-May | 04:00AM | VFR | 240° | 6 kt | 10000 meters | 10° | 50° | 2° | 35° | 57% | 1017 mb | -482 ft | |||
| 08-May | 03:00AM | VFR | 250° | 9 kt | 10000 meters | 10° | 50° | 2° | 35° | 57% | 1018 mb | -512 ft | |||
| 08-May | 02:00AM | VFR | 240° | 7 kt | 10000 meters | 10° | 50° | 2° | 35° | 57% | 1018 mb | -512 ft | |||
| 08-May | 01:00AM | VFR | 240° | 11 kt | 10000 meters | 10° | 50° | 1° | 33° | 53% | 1019 mb | -541 ft | |||
| 08-May | 12:00AM | VFR | 240° | 12 kt | 10000 meters | 10° | 50° | 0° | 32° | 50% | 1019 mb | -541 ft | |||
| 07-May | 11:00PM | VFR | 260° | 4 kt | 10000 meters | 9° | 48° | 0° | 32° | 53% | 1019 mb | -661 ft | |||
| 07-May | 10:00PM | VFR | 260° | 7 kt | 10000 meters | 10° | 50° | 0° | 32° | 50% | 1019 mb | -541 ft | |||
| 07-May | 09:00PM | VFR | 260° | 9 kt | 10000 meters | 10° | 50° | 0° | 32° | 50% | 1019 mb | -541 ft | |||
| 07-May | 08:00PM | VFR | 270° | 11 kt | 10000 meters | 11° | 51° | -1° | 30° | 43% | 1019 mb | -421 ft | |||
| 07-May | 07:00PM | VFR | 260° | 12 kt | 10000 meters | 11° | 51° | -1° | 30° | 43% | 1018 mb | -392 ft | |||
| 07-May | 06:00PM | VFR | 270° | 10 kt | 10000 meters | 12° | 53° | -1° | 30° | 40% | 1017 mb | -242 ft | |||
| 07-May | 05:00PM | VFR | 250° | 15 kt | 10000 meters | 13° | 55° | -2° | 28° | 35% | 1016 mb | -92 ft | |||
| 07-May | 04:00PM | VFR | 260° | 16 kt | 10000 meters | 14° | 57° | -2° | 28° | 33% | 1016 mb | 28 ft | |||
| 07-May | 03:00PM | VFR | 240° | 18 kt | Few |
7,200 |
10000 meters | 15° | 59° | -3° | 26° | 29% | 1015 mb | 177 ft | |
| 07-May | 02:00PM | VFR | 250° | 18 kt | Few |
7,500 |
10000 meters | 15° | 59° | -4° | 24° | 27% | 1015 mb | 177 ft | Wind gusting to 29 KT |
Login
| Your browser is unsupported. upgrade your browser |
